sensor_id;sensor_type;location;lat;lon;timestamp;P1;durP1;ratioP1;P2;durP2;ratioP2
48875;SDS011;34689;51.644;5.618;2022-08-02T00:01:33;0.93;;;0.52;;
48875;SDS011;34689;51.644;5.618;2022-08-02T00:03:59;1.27;;;0.40;;
48875;SDS011;34689;51.644;5.618;2022-08-02T00:06:25;0.40;;;0.40;;
48875;SDS011;34689;51.644;5.618;2022-08-02T00:08:51;1.42;;;0.63;;
48875;SDS011;34689;51.644;5.618;2022-08-02T00:11:18;1.13;;;0.50;;
48875;SDS011;34689;51.644;5.618;2022-08-02T00:13:44;0.40;;;0.40;;
48875;SDS011;34689;51.644;5.618;2022-08-02T00:16:10;1.30;;;0.63;;
48875;SDS011;34689;51.644;5.618;2022-08-02T00:18:36;1.45;;;0.70;;
48875;SDS011;34689;51.644;5.618;2022-08-02T00:21:02;2.03;;;1.05;;
48875;SDS011;34689;51.644;5.618;2022-08-02T00:23:27;2.10;;;0.85;;
48875;SDS011;34689;51.644;5.618;2022-08-02T00:25:53;2.65;;;1.15;;
48875;SDS011;34689;51.644;5.618;2022-08-02T00:28:19;2.15;;;0.63;;
48875;SDS011;34689;51.644;5.618;2022-08-02T00:30:45;1.35;;;0.52;;
48875;SDS011;34689;51.644;5.618;2022-08-02T00:33:10;0.88;;;0.47;;
48875;SDS011;34689;51.644;5.618;2022-08-02T00:35:36;3.50;;;0.90;;
48875;SDS011;34689;51.644;5.618;2022-08-02T00:38:02;1.20;;;0.85;;
48875;SDS011;34689;51.644;5.618;2022-08-02T00:40:28;0.82;;;0.50;;
48875;SDS011;34689;51.644;5.618;2022-08-02T00:45:28;0.88;;;0.55;;
48875;SDS011;34689;51.644;5.618;2022-08-02T00:47:54;1.48;;;0.52;;
48875;SDS011;34689;51.644;5.618;2022-08-02T00:50:20;1.10;;;0.73;;
48875;SDS011;34689;51.644;5.618;2022-08-02T00:52:46;1.55;;;0.73;;
48875;SDS011;34689;51.644;5.618;2022-08-02T00:55:12;2.05;;;0.60;;
48875;SDS011;34689;51.644;5.618;2022-08-02T00:57:38;0.95;;;0.52;;
48875;SDS011;34689;51.644;5.618;2022-08-02T01:00:04;1.20;;;0.47;;
48875;SDS011;34689;51.644;5.618;2022-08-02T01:02:30;1.08;;;0.80;;
48875;SDS011;34689;51.644;5.618;2022-08-02T01:04:56;0.90;;;0.50;;
48875;SDS011;34689;51.644;5.618;2022-08-02T01:07:22;3.33;;;0.85;;
48875;SDS011;34689;51.644;5.618;2022-08-02T01:09:47;3.38;;;0.52;;
48875;SDS011;34689;51.644;5.618;2022-08-02T01:12:14;1.75;;;0.30;;
48875;SDS011;34689;51.644;5.618;2022-08-02T01:14:40;0.85;;;0.50;;
48875;SDS011;34689;51.644;5.618;2022-08-02T01:17:11;1.48;;;0.68;;
48875;SDS011;34689;51.644;5.618;2022-08-02T01:22:34;1.50;;;0.50;;
48875;SDS011;34689;51.644;5.618;2022-08-02T01:28:15;1.63;;;0.45;;
48875;SDS011;34689;51.644;5.618;2022-08-02T01:31:02;2.38;;;0.65;;
48875;SDS011;34689;51.644;5.618;2022-08-02T01:33:36;0.65;;;0.50;;
48875;SDS011;34689;51.644;5.618;2022-08-02T01:36:12;1.48;;;0.52;;
48875;SDS011;34689;51.644;5.618;2022-08-02T01:38:42;1.08;;;0.57;;
48875;SDS011;34689;51.644;5.618;2022-08-02T01:41:14;0.73;;;0.40;;
48875;SDS011;34689;51.644;5.618;2022-08-02T01:43:44;1.35;;;0.65;;
48875;SDS011;34689;51.644;5.618;2022-08-02T01:46:13;1.60;;;0.38;;
48875;SDS011;34689;51.644;5.618;2022-08-02T01:48:40;0.63;;;0.35;;
48875;SDS011;34689;51.644;5.618;2022-08-02T01:51:11;1.42;;;0.68;;
48875;SDS011;34689;51.644;5.618;2022-08-02T01:53:40;3.17;;;0.75;;
48875;SDS011;34689;51.644;5.618;2022-08-02T01:56:09;0.80;;;0.43;;
48875;SDS011;34689;51.644;5.618;2022-08-02T01:58:37;0.45;;;0.45;;
48875;SDS011;34689;51.644;5.618;2022-08-02T02:01:05;0.90;;;0.50;;
48875;SDS011;34689;51.644;5.618;2022-08-02T02:03:33;1.38;;;0.60;;
48875;SDS011;34689;51.644;5.618;2022-08-02T02:06:03;2.22;;;0.68;;
48875;SDS011;34689;51.644;5.618;2022-08-02T02:08:33;1.05;;;0.63;;
48875;SDS011;34689;51.644;5.618;2022-08-02T02:11:05;0.88;;;0.52;;
48875;SDS011;34689;51.644;5.618;2022-08-02T02:13:33;0.50;;;0.50;;
48875;SDS011;34689;51.644;5.618;2022-08-02T02:16:02;1.20;;;0.68;;
48875;SDS011;34689;51.644;5.618;2022-08-02T02:18:30;0.85;;;0.45;;
48875;SDS011;34689;51.644;5.618;2022-08-02T02:21:03;1.35;;;0.57;;
48875;SDS011;34689;51.644;5.618;2022-08-02T02:23:28;1.75;;;0.60;;
48875;SDS011;34689;51.644;5.618;2022-08-02T02:25:54;2.25;;;0.90;;
48875;SDS011;34689;51.644;5.618;2022-08-02T02:28:22;1.55;;;0.40;;
48875;SDS011;34689;51.644;5.618;2022-08-02T02:30:57;0.70;;;0.50;;
48875;SDS011;34689;51.644;5.618;2022-08-02T02:33:36;1.15;;;0.77;;
48875;SDS011;34689;51.644;5.618;2022-08-02T02:36:06;2.33;;;0.65;;
48875;SDS011;34689;51.644;5.618;2022-08-02T02:38:34;1.15;;;0.70;;
48875;SDS011;34689;51.644;5.618;2022-08-02T02:41:02;2.95;;;0.50;;
48875;SDS011;34689;51.644;5.618;2022-08-02T02:43:31;2.30;;;0.73;;
48875;SDS011;34689;51.644;5.618;2022-08-02T02:45:59;2.15;;;0.70;;
48875;SDS011;34689;51.644;5.618;2022-08-02T02:48:28;0.80;;;0.60;;
48875;SDS011;34689;51.644;5.618;2022-08-02T02:50:55;1.67;;;0.60;;
48875;SDS011;34689;51.644;5.618;2022-08-02T02:53:21;0.90;;;0.43;;
48875;SDS011;34689;51.644;5.618;2022-08-02T02:55:47;2.13;;;0.70;;
48875;SDS011;34689;51.644;5.618;2022-08-02T02:58:14;2.70;;;0.85;;
48875;SDS011;34689;51.644;5.618;2022-08-02T03:00:40;2.10;;;0.65;;
48875;SDS011;34689;51.644;5.618;2022-08-02T03:03:25;2.13;;;0.55;;
48875;SDS011;34689;51.644;5.618;2022-08-02T03:05:51;1.25;;;0.80;;
48875;SDS011;34689;51.644;5.618;2022-08-02T03:08:17;1.10;;;0.63;;
48875;SDS011;34689;51.644;5.618;2022-08-02T03:10:43;0.98;;;0.70;;
48875;SDS011;34689;51.644;5.618;2022-08-02T03:13:10;1.65;;;0.70;;
48875;SDS011;34689;51.644;5.618;2022-08-02T03:15:36;0.80;;;0.63;;
48875;SDS011;34689;51.644;5.618;2022-08-02T03:18:03;1.83;;;0.82;;
48875;SDS011;34689;51.644;5.618;2022-08-02T03:20:32;0.73;;;0.65;;
48875;SDS011;34689;51.644;5.618;2022-08-02T03:22:58;1.23;;;0.80;;
48875;SDS011;34689;51.644;5.618;2022-08-02T03:25:24;2.53;;;1.35;;
48875;SDS011;34689;51.644;5.618;2022-08-02T03:27:50;2.45;;;0.80;;
48875;SDS011;34689;51.644;5.618;2022-08-02T03:30:16;0.52;;;0.50;;
48875;SDS011;34689;51.644;5.618;2022-08-02T03:32:43;0.50;;;0.50;;
48875;SDS011;34689;51.644;5.618;2022-08-02T03:35:12;3.38;;;0.82;;
48875;SDS011;34689;51.644;5.618;2022-08-02T03:37:39;0.88;;;0.57;;
48875;SDS011;34689;51.644;5.618;2022-08-02T03:40:07;2.88;;;0.82;;
48875;SDS011;34689;51.644;5.618;2022-08-02T03:42:34;2.03;;;1.02;;
48875;SDS011;34689;51.644;5.618;2022-08-02T03:45:03;1.20;;;0.75;;
48875;SDS011;34689;51.644;5.618;2022-08-02T03:47:31;0.95;;;0.68;;
48875;SDS011;34689;51.644;5.618;2022-08-02T03:49:57;1.02;;;0.70;;
48875;SDS011;34689;51.644;5.618;2022-08-02T03:52:23;3.35;;;0.82;;
48875;SDS011;34689;51.644;5.618;2022-08-02T03:54:52;2.13;;;0.90;;
48875;SDS011;34689;51.644;5.618;2022-08-02T03:57:18;0.95;;;0.52;;
48875;SDS011;34689;51.644;5.618;2022-08-02T03:59:44;2.60;;;0.45;;
48875;SDS011;34689;51.644;5.618;2022-08-02T04:02:11;0.65;;;0.60;;
48875;SDS011;34689;51.644;5.618;2022-08-02T04:04:37;1.17;;;0.63;;
48875;SDS011;34689;51.644;5.618;2022-08-02T04:07:04;2.17;;;0.77;;
48875;SDS011;34689;51.644;5.618;2022-08-02T04:09:30;2.20;;;0.75;;
48875;SDS011;34689;51.644;5.618;2022-08-02T04:11:56;2.08;;;0.50;;
48875;SDS011;34689;51.644;5.618;2022-08-02T04:14:23;1.55;;;0.68;;
48875;SDS011;34689;51.644;5.618;2022-08-02T04:16:52;0.85;;;0.60;;
48875;SDS011;34689;51.644;5.618;2022-08-02T04:21:59;1.17;;;0.55;;
48875;SDS011;34689;51.644;5.618;2022-08-02T04:24:30;1.10;;;0.80;;
48875;SDS011;34689;51.644;5.618;2022-08-02T04:27:02;1.25;;;0.90;;
48875;SDS011;34689;51.644;5.618;2022-08-02T04:29:29;0.68;;;0.50;;
48875;SDS011;34689;51.644;5.618;2022-08-02T04:31:55;2.28;;;1.20;;
48875;SDS011;34689;51.644;5.618;2022-08-02T04:34:22;0.98;;;0.77;;
48875;SDS011;34689;51.644;5.618;2022-08-02T04:36:48;1.55;;;0.70;;
48875;SDS011;34689;51.644;5.618;2022-08-02T04:39:14;2.03;;;0.70;;
48875;SDS011;34689;51.644;5.618;2022-08-02T04:41:41;1.10;;;0.90;;
48875;SDS011;34689;51.644;5.618;2022-08-02T04:44:08;1.35;;;0.88;;
48875;SDS011;34689;51.644;5.618;2022-08-02T04:46:34;4.32;;;0.85;;
48875;SDS011;34689;51.644;5.618;2022-08-02T04:49:01;1.15;;;0.80;;
48875;SDS011;34689;51.644;5.618;2022-08-02T04:51:26;2.05;;;0.70;;
48875;SDS011;34689;51.644;5.618;2022-08-02T04:53:52;1.38;;;0.77;;
48875;SDS011;34689;51.644;5.618;2022-08-02T04:56:18;1.90;;;1.13;;
48875;SDS011;34689;51.644;5.618;2022-08-02T04:58:44;2.78;;;0.95;;
48875;SDS011;34689;51.644;5.618;2022-08-02T05:01:09;3.05;;;0.68;;
48875;SDS011;34689;51.644;5.618;2022-08-02T05:03:35;1.08;;;0.70;;
48875;SDS011;34689;51.644;5.618;2022-08-02T05:06:01;1.80;;;1.10;;
48875;SDS011;34689;51.644;5.618;2022-08-02T05:08:27;0.93;;;0.60;;
48875;SDS011;34689;51.644;5.618;2022-08-02T05:10:53;2.03;;;0.98;;
48875;SDS011;34689;51.644;5.618;2022-08-02T05:13:19;0.65;;;0.65;;
48875;SDS011;34689;51.644;5.618;2022-08-02T05:15:48;1.58;;;1.05;;
48875;SDS011;34689;51.644;5.618;2022-08-02T05:18:16;0.80;;;0.77;;
48875;SDS011;34689;51.644;5.618;2022-08-02T05:20:42;2.45;;;0.90;;
48875;SDS011;34689;51.644;5.618;2022-08-02T05:23:08;2.13;;;0.95;;
48875;SDS011;34689;51.644;5.618;2022-08-02T05:25:34;1.63;;;0.82;;
48875;SDS011;34689;51.644;5.618;2022-08-02T05:27:59;1.88;;;0.90;;
48875;SDS011;34689;51.644;5.618;2022-08-02T05:30:25;4.45;;;1.30;;
48875;SDS011;34689;51.644;5.618;2022-08-02T05:32:51;2.40;;;1.38;;
48875;SDS011;34689;51.644;5.618;2022-08-02T05:35:20;1.55;;;0.80;;
48875;SDS011;34689;51.644;5.618;2022-08-02T05:37:48;2.72;;;1.10;;
48875;SDS011;34689;51.644;5.618;2022-08-02T05:40:15;2.47;;;1.17;;
48875;SDS011;34689;51.644;5.618;2022-08-02T05:42:42;2.17;;;1.33;;
48875;SDS011;34689;51.644;5.618;2022-08-02T05:45:09;0.90;;;0.90;;
48875;SDS011;34689;51.644;5.618;2022-08-02T05:47:35;2.05;;;1.67;;
48875;SDS011;34689;51.644;5.618;2022-08-02T05:50:02;4.95;;;2.10;;
48875;SDS011;34689;51.644;5.618;2022-08-02T05:52:33;2.38;;;1.52;;
48875;SDS011;34689;51.644;5.618;2022-08-02T05:55:09;4.80;;;1.83;;
48875;SDS011;34689;51.644;5.618;2022-08-02T05:58:02;3.15;;;1.70;;
48875;SDS011;34689;51.644;5.618;2022-08-02T06:00:30;2.42;;;1.77;;
48875;SDS011;34689;51.644;5.618;2022-08-02T06:03:04;2.58;;;1.38;;
48875;SDS011;34689;51.644;5.618;2022-08-02T06:05:59;3.72;;;1.25;;
48875;SDS011;34689;51.644;5.618;2022-08-02T06:08:37;3.20;;;1.23;;
48875;SDS011;34689;51.644;5.618;2022-08-02T06:11:09;1.90;;;1.10;;
48875;SDS011;34689;51.644;5.618;2022-08-02T06:13:38;2.25;;;1.08;;
48875;SDS011;34689;51.644;5.618;2022-08-02T06:16:06;2.15;;;1.35;;
48875;SDS011;34689;51.644;5.618;2022-08-02T06:18:32;2.50;;;1.90;;
48875;SDS011;34689;51.644;5.618;2022-08-02T06:21:03;1.75;;;1.38;;
48875;SDS011;34689;51.644;5.618;2022-08-02T06:23:30;1.67;;;1.45;;
48875;SDS011;34689;51.644;5.618;2022-08-02T06:25:57;3.72;;;1.42;;
48875;SDS011;34689;51.644;5.618;2022-08-02T06:28:24;1.63;;;1.05;;
48875;SDS011;34689;51.644;5.618;2022-08-02T06:30:51;3.50;;;1.42;;
48875;SDS011;34689;51.644;5.618;2022-08-02T06:33:17;1.27;;;1.17;;
48875;SDS011;34689;51.644;5.618;2022-08-02T06:38:08;4.90;;;2.45;;
48875;SDS011;34689;51.644;5.618;2022-08-02T06:40:44;1.95;;;1.75;;
48875;SDS011;34689;51.644;5.618;2022-08-02T06:43:34;3.08;;;1.90;;
48875;SDS011;34689;51.644;5.618;2022-08-02T06:46:19;2.72;;;1.80;;
48875;SDS011;34689;51.644;5.618;2022-08-02T06:48:46;4.35;;;2.42;;
48875;SDS011;34689;51.644;5.618;2022-08-02T06:51:12;2.28;;;1.80;;
48875;SDS011;34689;51.644;5.618;2022-08-02T06:53:38;3.00;;;2.03;;
48875;SDS011;34689;51.644;5.618;2022-08-02T06:56:04;4.00;;;2.30;;
48875;SDS011;34689;51.644;5.618;2022-08-02T06:58:31;3.15;;;2.03;;
48875;SDS011;34689;51.644;5.618;2022-08-02T07:00:56;2.60;;;2.20;;
48875;SDS011;34689;51.644;5.618;2022-08-02T07:03:22;2.83;;;1.80;;
48875;SDS011;34689;51.644;5.618;2022-08-02T07:05:49;3.45;;;1.90;;
48875;SDS011;34689;51.644;5.618;2022-08-02T07:08:16;4.20;;;2.70;;
48875;SDS011;34689;51.644;5.618;2022-08-02T07:10:42;3.55;;;2.67;;
48875;SDS011;34689;51.644;5.618;2022-08-02T07:13:08;4.82;;;2.40;;
48875;SDS011;34689;51.644;5.618;2022-08-02T07:15:36;6.25;;;2.92;;
48875;SDS011;34689;51.644;5.618;2022-08-02T07:18:03;3.45;;;2.60;;
48875;SDS011;34689;51.644;5.618;2022-08-02T07:20:30;6.50;;;3.13;;
48875;SDS011;34689;51.644;5.618;2022-08-02T07:22:56;5.03;;;2.53;;
48875;SDS011;34689;51.644;5.618;2022-08-02T07:25:23;4.18;;;3.05;;
48875;SDS011;34689;51.644;5.618;2022-08-02T07:27:50;7.53;;;4.85;;
48875;SDS011;34689;51.644;5.618;2022-08-02T07:30:16;9.35;;;4.30;;
48875;SDS011;34689;51.644;5.618;2022-08-02T07:32:41;4.28;;;3.17;;
48875;SDS011;34689;51.644;5.618;2022-08-02T07:35:07;4.43;;;3.33;;
48875;SDS011;34689;51.644;5.618;2022-08-02T07:37:34;5.57;;;3.28;;
48875;SDS011;34689;51.644;5.618;2022-08-02T07:40:02;6.70;;;3.20;;
48875;SDS011;34689;51.644;5.618;2022-08-02T07:42:29;7.78;;;3.38;;
48875;SDS011;34689;51.644;5.618;2022-08-02T07:44:55;6.60;;;3.72;;
48875;SDS011;34689;51.644;5.618;2022-08-02T07:47:21;6.53;;;3.28;;
48875;SDS011;34689;51.644;5.618;2022-08-02T07:49:46;7.45;;;3.67;;
48875;SDS011;34689;51.644;5.618;2022-08-02T07:52:12;7.28;;;3.70;;
48875;SDS011;34689;51.644;5.618;2022-08-02T07:54:38;5.15;;;3.35;;
48875;SDS011;34689;51.644;5.618;2022-08-02T07:57:04;4.65;;;2.65;;
48875;SDS011;34689;51.644;5.618;2022-08-02T07:59:29;4.18;;;2.50;;
48875;SDS011;34689;51.644;5.618;2022-08-02T08:01:55;4.57;;;2.78;;
48875;SDS011;34689;51.644;5.618;2022-08-02T08:04:21;3.58;;;2.65;;
48875;SDS011;34689;51.644;5.618;2022-08-02T08:06:47;7.28;;;2.65;;
48875;SDS011;34689;51.644;5.618;2022-08-02T08:09:16;5.88;;;2.55;;
48875;SDS011;34689;51.644;5.618;2022-08-02T08:11:42;3.85;;;2.95;;
48875;SDS011;34689;51.644;5.618;2022-08-02T08:14:07;5.13;;;2.78;;
48875;SDS011;34689;51.644;5.618;2022-08-02T08:16:33;4.15;;;2.75;;
48875;SDS011;34689;51.644;5.618;2022-08-02T08:19:00;12.15;;;3.55;;
48875;SDS011;34689;51.644;5.618;2022-08-02T08:21:26;3.55;;;2.60;;
48875;SDS011;34689;51.644;5.618;2022-08-02T08:23:53;6.22;;;3.13;;
48875;SDS011;34689;51.644;5.618;2022-08-02T08:26:20;4.28;;;2.25;;
48875;SDS011;34689;51.644;5.618;2022-08-02T08:28:46;2.85;;;2.10;;
48875;SDS011;34689;51.644;5.618;2022-08-02T08:31:12;4.05;;;2.10;;
48875;SDS011;34689;51.644;5.618;2022-08-02T08:33:38;3.30;;;2.58;;
48875;SDS011;34689;51.644;5.618;2022-08-02T08:36:04;2.55;;;1.83;;
48875;SDS011;34689;51.644;5.618;2022-08-02T08:38:30;5.07;;;2.40;;
48875;SDS011;34689;51.644;5.618;2022-08-02T08:40:55;4.22;;;2.25;;
48875;SDS011;34689;51.644;5.618;2022-08-02T08:43:21;3.85;;;2.22;;
48875;SDS011;34689;51.644;5.618;2022-08-02T08:45:47;8.43;;;1.75;;
48875;SDS011;34689;51.644;5.618;2022-08-02T08:48:14;3.13;;;1.95;;
48875;SDS011;34689;51.644;5.618;2022-08-02T08:53:31;2.10;;;1.45;;
48875;SDS011;34689;51.644;5.618;2022-08-02T08:56:03;1.70;;;1.20;;
48875;SDS011;34689;51.644;5.618;2022-08-02T08:58:30;2.05;;;1.33;;
48875;SDS011;34689;51.644;5.618;2022-08-02T09:00:56;2.40;;;1.67;;
48875;SDS011;34689;51.644;5.618;2022-08-02T09:03:21;2.72;;;1.23;;
48875;SDS011;34689;51.644;5.618;2022-08-02T09:05:47;2.25;;;1.08;;
48875;SDS011;34689;51.644;5.618;2022-08-02T09:08:13;1.85;;;0.88;;
48875;SDS011;34689;51.644;5.618;2022-08-02T09:10:40;1.98;;;0.80;;
48875;SDS011;34689;51.644;5.618;2022-08-02T09:16:01;6.00;;;1.08;;
48875;SDS011;34689;51.644;5.618;2022-08-02T09:18:32;4.53;;;2.45;;
48875;SDS011;34689;51.644;5.618;2022-08-02T09:21:01;3.50;;;1.15;;
48875;SDS011;34689;51.644;5.618;2022-08-02T09:23:38;4.50;;;0.50;;
48875;SDS011;34689;51.644;5.618;2022-08-02T09:26:10;1.17;;;0.73;;
48875;SDS011;34689;51.644;5.618;2022-08-02T09:28:41;1.20;;;0.70;;
48875;SDS011;34689;51.644;5.618;2022-08-02T09:31:09;2.10;;;0.70;;
48875;SDS011;34689;51.644;5.618;2022-08-02T09:33:35;5.82;;;2.08;;
48875;SDS011;34689;51.644;5.618;2022-08-02T09:36:03;1.63;;;0.50;;
48875;SDS011;34689;51.644;5.618;2022-08-02T09:38:30;1.45;;;0.55;;
48875;SDS011;34689;51.644;5.618;2022-08-02T09:40:57;5.50;;;1.08;;
48875;SDS011;34689;51.644;5.618;2022-08-02T09:43:34;3.17;;;0.95;;
48875;SDS011;34689;51.644;5.618;2022-08-02T09:51:23;0.85;;;0.60;;
48875;SDS011;34689;51.644;5.618;2022-08-02T09:53:51;1.05;;;0.68;;
48875;SDS011;34689;51.644;5.618;2022-08-02T09:56:18;2.33;;;0.50;;
48875;SDS011;34689;51.644;5.618;2022-08-02T09:58:46;0.95;;;0.70;;
48875;SDS011;34689;51.644;5.618;2022-08-02T10:01:12;4.50;;;0.90;;
48875;SDS011;34689;51.644;5.618;2022-08-02T10:04:00;4.35;;;0.82;;
48875;SDS011;34689;51.644;5.618;2022-08-02T10:06:26;10.93;;;1.15;;
48875;SDS011;34689;51.644;5.618;2022-08-02T10:08:53;0.57;;;0.50;;
48875;SDS011;34689;51.644;5.618;2022-08-02T10:11:22;1.50;;;0.57;;
48875;SDS011;34689;51.644;5.618;2022-08-02T10:13:49;2.08;;;0.57;;
48875;SDS011;34689;51.644;5.618;2022-08-02T10:16:17;1.85;;;0.80;;
48875;SDS011;34689;51.644;5.618;2022-08-02T10:18:47;3.65;;;0.90;;
48875;SDS011;34689;51.644;5.618;2022-08-02T10:21:18;1.73;;;0.52;;
48875;SDS011;34689;51.644;5.618;2022-08-02T10:23:48;2.25;;;0.70;;
48875;SDS011;34689;51.644;5.618;2022-08-02T10:26:17;5.65;;;1.85;;
48875;SDS011;34689;51.644;5.618;2022-08-02T10:28:47;1.65;;;0.70;;
48875;SDS011;34689;51.644;5.618;2022-08-02T10:31:16;0.70;;;0.52;;
48875;SDS011;34689;51.644;5.618;2022-08-02T10:33:47;2.55;;;0.65;;
48875;SDS011;34689;51.644;5.618;2022-08-02T10:36:16;4.13;;;0.70;;
48875;SDS011;34689;51.644;5.618;2022-08-02T10:38:43;1.20;;;0.60;;
48875;SDS011;34689;51.644;5.618;2022-08-02T10:41:10;1.27;;;0.57;;
48875;SDS011;34689;51.644;5.618;2022-08-02T10:46:21;0.73;;;0.43;;
48875;SDS011;34689;51.644;5.618;2022-08-02T10:52:15;4.65;;;0.50;;
48875;SDS011;34689;51.644;5.618;2022-08-02T10:56:56;1.40;;;0.57;;
48875;SDS011;34689;51.644;5.618;2022-08-02T11:01:51;1.10;;;0.70;;
48875;SDS011;34689;51.644;5.618;2022-08-02T11:04:26;5.68;;;0.93;;
48875;SDS011;34689;51.644;5.618;2022-08-02T11:07:09;2.67;;;0.60;;
48875;SDS011;34689;51.644;5.618;2022-08-02T11:09:42;1.15;;;0.40;;
48875;SDS011;34689;51.644;5.618;2022-08-02T11:12:14;1.17;;;0.40;;
48875;SDS011;34689;51.644;5.618;2022-08-02T11:14:45;2.70;;;0.43;;
48875;SDS011;34689;51.644;5.618;2022-08-02T11:17:50;1.05;;;0.50;;
48875;SDS011;34689;51.644;5.618;2022-08-02T11:20:17;0.68;;;0.40;;
48875;SDS011;34689;51.644;5.618;2022-08-02T11:22:46;1.35;;;0.63;;
48875;SDS011;34689;51.644;5.618;2022-08-02T11:27:50;0.90;;;0.90;;
48875;SDS011;34689;51.644;5.618;2022-08-02T11:30:17;0.77;;;0.52;;
48875;SDS011;34689;51.644;5.618;2022-08-02T11:32:46;2.35;;;0.50;;
48875;SDS011;34689;51.644;5.618;2022-08-02T11:35:13;0.75;;;0.40;;
48875;SDS011;34689;51.644;5.618;2022-08-02T11:37:40;0.82;;;0.40;;
48875;SDS011;34689;51.644;5.618;2022-08-02T11:40:11;1.63;;;0.50;;
48875;SDS011;34689;51.644;5.618;2022-08-02T11:42:40;4.80;;;0.68;;
48875;SDS011;34689;51.644;5.618;2022-08-02T11:45:08;0.45;;;0.40;;
48875;SDS011;34689;51.644;5.618;2022-08-02T11:47:45;0.38;;;0.32;;
48875;SDS011;34689;51.644;5.618;2022-08-02T11:50:13;2.05;;;0.47;;
48875;SDS011;34689;51.644;5.618;2022-08-02T11:52:39;0.70;;;0.43;;
48875;SDS011;34689;51.644;5.618;2022-08-02T11:55:05;0.43;;;0.43;;
48875;SDS011;34689;51.644;5.618;2022-08-02T11:57:32;0.55;;;0.30;;
48875;SDS011;34689;51.644;5.618;2022-08-02T11:59:58;0.75;;;0.40;;
48875;SDS011;34689;51.644;5.618;2022-08-02T12:02:28;0.70;;;0.38;;
48875;SDS011;34689;51.644;5.618;2022-08-02T12:05:04;1.30;;;0.50;;
48875;SDS011;34689;51.644;5.618;2022-08-02T12:07:33;0.95;;;0.50;;
48875;SDS011;34689;51.644;5.618;2022-08-02T12:10:02;3.05;;;0.63;;
48875;SDS011;34689;51.644;5.618;2022-08-02T12:17:55;4.32;;;0.40;;
48875;SDS011;34689;51.644;5.618;2022-08-02T12:20:40;1.80;;;0.30;;
48875;SDS011;34689;51.644;5.618;2022-08-02T12:23:06;0.30;;;0.30;;
48875;SDS011;34689;51.644;5.618;2022-08-02T12:25:31;0.32;;;0.32;;
48875;SDS011;34689;51.644;5.618;2022-08-02T12:33:15;0.73;;;0.40;;
48875;SDS011;34689;51.644;5.618;2022-08-02T12:35:41;2.10;;;0.50;;
48875;SDS011;34689;51.644;5.618;2022-08-02T12:38:10;3.90;;;0.68;;
48875;SDS011;34689;51.644;5.618;2022-08-02T12:40:36;0.50;;;0.45;;
48875;SDS011;34689;51.644;5.618;2022-08-02T12:43:05;2.13;;;0.50;;
48875;SDS011;34689;51.644;5.618;2022-08-02T12:45:43;1.20;;;0.43;;
48875;SDS011;34689;51.644;5.618;2022-08-02T12:48:32;3.78;;;0.50;;
48875;SDS011;34689;51.644;5.618;2022-08-02T12:51:17;2.28;;;0.60;;
48875;SDS011;34689;51.644;5.618;2022-08-02T12:53:50;0.70;;;0.65;;
48875;SDS011;34689;51.644;5.618;2022-08-02T12:56:26;3.45;;;0.60;;
48875;SDS011;34689;51.644;5.618;2022-08-02T12:58:54;0.45;;;0.40;;
48875;SDS011;34689;51.644;5.618;2022-08-02T13:01:21;1.77;;;0.47;;
48875;SDS011;34689;51.644;5.618;2022-08-02T13:03:50;0.40;;;0.40;;
48875;SDS011;34689;51.644;5.618;2022-08-02T13:06:17;0.50;;;0.38;;
48875;SDS011;34689;51.644;5.618;2022-08-02T13:08:44;5.35;;;0.90;;
48875;SDS011;34689;51.644;5.618;2022-08-02T13:11:10;11.18;;;1.00;;
48875;SDS011;34689;51.644;5.618;2022-08-02T13:13:36;1.77;;;0.70;;
48875;SDS011;34689;51.644;5.618;2022-08-02T13:16:02;1.65;;;0.38;;
48875;SDS011;34689;51.644;5.618;2022-08-02T13:18:28;1.85;;;0.45;;
48875;SDS011;34689;51.644;5.618;2022-08-02T13:20:54;0.65;;;0.50;;
48875;SDS011;34689;51.644;5.618;2022-08-02T13:23:20;0.82;;;0.60;;
48875;SDS011;34689;51.644;5.618;2022-08-02T13:25:45;0.90;;;0.30;;
48875;SDS011;34689;51.644;5.618;2022-08-02T13:28:12;2.63;;;0.45;;
48875;SDS011;34689;51.644;5.618;2022-08-02T13:30:38;0.25;;;0.25;;
48875;SDS011;34689;51.644;5.618;2022-08-02T13:33:03;0.98;;;0.50;;
48875;SDS011;34689;51.644;5.618;2022-08-02T13:35:29;2.97;;;0.40;;
48875;SDS011;34689;51.644;5.618;2022-08-02T13:37:55;2.92;;;0.50;;
48875;SDS011;34689;51.644;5.618;2022-08-02T13:40:21;1.15;;;0.50;;
48875;SDS011;34689;51.644;5.618;2022-08-02T13:42:47;0.40;;;0.40;;
48875;SDS011;34689;51.644;5.618;2022-08-02T13:45:14;3.25;;;0.90;;
48875;SDS011;34689;51.644;5.618;2022-08-02T13:47:42;0.70;;;0.57;;
48875;SDS011;34689;51.644;5.618;2022-08-02T13:50:11;0.40;;;0.40;;
48875;SDS011;34689;51.644;5.618;2022-08-02T13:52:37;1.77;;;0.38;;
48875;SDS011;34689;51.644;5.618;2022-08-02T13:55:04;1.95;;;0.50;;
48875;SDS011;34689;51.644;5.618;2022-08-02T13:57:30;1.98;;;0.40;;
48875;SDS011;34689;51.644;5.618;2022-08-02T13:59:56;1.63;;;0.77;;
48875;SDS011;34689;51.644;5.618;2022-08-02T14:02:21;1.05;;;0.47;;
48875;SDS011;34689;51.644;5.618;2022-08-02T14:04:47;1.10;;;0.75;;
48875;SDS011;34689;51.644;5.618;2022-08-02T14:07:13;3.75;;;0.63;;
48875;SDS011;34689;51.644;5.618;2022-08-02T14:09:40;0.60;;;0.50;;
48875;SDS011;34689;51.644;5.618;2022-08-02T14:12:07;4.38;;;0.40;;
48875;SDS011;34689;51.644;5.618;2022-08-02T14:14:34;0.40;;;0.25;;
48875;SDS011;34689;51.644;5.618;2022-08-02T14:17:00;2.30;;;0.52;;
48875;SDS011;34689;51.644;5.618;2022-08-02T14:19:25;0.47;;;0.40;;
48875;SDS011;34689;51.644;5.618;2022-08-02T14:21:51;0.70;;;0.60;;
48875;SDS011;34689;51.644;5.618;2022-08-02T14:24:18;1.85;;;0.73;;
48875;SDS011;34689;51.644;5.618;2022-08-02T14:26:46;0.63;;;0.40;;
48875;SDS011;34689;51.644;5.618;2022-08-02T14:29:13;2.83;;;0.50;;
48875;SDS011;34689;51.644;5.618;2022-08-02T14:31:39;0.45;;;0.40;;
48875;SDS011;34689;51.644;5.618;2022-08-02T14:34:05;0.45;;;0.45;;
48875;SDS011;34689;51.644;5.618;2022-08-02T14:36:31;0.50;;;0.40;;
48875;SDS011;34689;51.644;5.618;2022-08-02T14:38:57;0.40;;;0.28;;
48875;SDS011;34689;51.644;5.618;2022-08-02T14:41:23;2.17;;;0.77;;
48875;SDS011;34689;51.644;5.618;2022-08-02T14:43:48;0.50;;;0.47;;
48875;SDS011;34689;51.644;5.618;2022-08-02T14:46:30;0.73;;;0.43;;
48875;SDS011;34689;51.644;5.618;2022-08-02T14:48:57;1.58;;;0.85;;
48875;SDS011;34689;51.644;5.618;2022-08-02T14:51:26;0.93;;;0.82;;
48875;SDS011;34689;51.644;5.618;2022-08-02T14:53:53;0.52;;;0.40;;
48875;SDS011;34689;51.644;5.618;2022-08-02T14:56:18;1.27;;;0.50;;
48875;SDS011;34689;51.644;5.618;2022-08-02T14:58:44;0.40;;;0.30;;
48875;SDS011;34689;51.644;5.618;2022-08-02T15:01:10;0.77;;;0.45;;
48875;SDS011;34689;51.644;5.618;2022-08-02T15:03:36;0.52;;;0.30;;
48875;SDS011;34689;51.644;5.618;2022-08-02T15:06:02;0.40;;;0.40;;
48875;SDS011;34689;51.644;5.618;2022-08-02T15:08:27;1.90;;;0.75;;
48875;SDS011;34689;51.644;5.618;2022-08-02T15:10:53;1.30;;;0.50;;
48875;SDS011;34689;51.644;5.618;2022-08-02T15:13:19;0.32;;;0.30;;
48875;SDS011;34689;51.644;5.618;2022-08-02T15:15:45;0.50;;;0.40;;
48875;SDS011;34689;51.644;5.618;2022-08-02T15:18:11;1.70;;;0.43;;
48875;SDS011;34689;51.644;5.618;2022-08-02T15:20:37;0.90;;;0.32;;
48875;SDS011;34689;51.644;5.618;2022-08-02T15:23:03;0.82;;;0.43;;
48875;SDS011;34689;51.644;5.618;2022-08-02T15:25:29;0.82;;;0.43;;
48875;SDS011;34689;51.644;5.618;2022-08-02T15:27:55;0.47;;;0.30;;
48875;SDS011;34689;51.644;5.618;2022-08-02T15:30:21;2.85;;;0.50;;
48875;SDS011;34689;51.644;5.618;2022-08-02T15:32:47;0.95;;;0.57;;
48875;SDS011;34689;51.644;5.618;2022-08-02T15:35:13;1.60;;;0.52;;
48875;SDS011;34689;51.644;5.618;2022-08-02T15:37:38;0.80;;;0.32;;
48875;SDS011;34689;51.644;5.618;2022-08-02T15:40:04;0.57;;;0.40;;
48875;SDS011;34689;51.644;5.618;2022-08-02T15:42:30;0.30;;;0.22;;